Date,TemperatureHighF,TemperatureAvgF,TemperatureLowF,DewpointHighF,DewpointAvgF,DewpointLowF,HumidityHigh,HumidityAvg,HumidityLow,PressureMaxIn,PressureMinIn,WindSpeedMaxMPH,WindSpeedAvgMPH,GustSpeedMaxMPH,PrecipitationSumIn
2013-2-1,32,26,20,18,10,4,70,51,36,30.00,29.51,11,5,0,0.00
2013-2-2,29,22,14,14,8,2,67,53,40,30.16,29.95,8,3,0,0.00
2013-2-3,29,23,17,22,20,15,98,87,71,29.97,29.63,5,1,0,0.00
2013-2-4,29,22,17,20,12,7,99,67,42,29.86,29.63,10,4,0,0.00
2013-2-5,28,23,20,22,16,9,95,73,62,29.93,29.84,3,1,0,0.00
2013-2-6,37,28,22,26,19,5,99,71,44,30.21,29.82,10,2,0,0.02
2013-2-7,32,23,15,12,6,4,72,48,32,30.45,30.22,4,1,0,0.00
2013-2-8,32,26,17,32,24,12,99,90,63,30.39,29.47,6,1,0,0.00
2013-2-9,24,19,12,20,16,6,99,87,72,30.11,29.45,9,5,0,0.00
2013-2-10,43,21,7,14,6,-1,81,54,23,30.30,30.11,6,2,0,0.02
2013-2-11,45,35,22,44,30,5,99,85,42,30.27,29.52,6,2,0,0.45
2013-2-12,42,37,31,39,29,24,99,74,56,29.80,29.53,9,4,0,0.00
2013-2-13,45,33,24,26,24,21,89,70,45,29.79,29.59,5,1,0,0.00
2013-2-14,46,34,26,28,23,20,88,65,38,29.91,29.62,5,1,0,0.00
2013-2-15,52,38,27,34,31,23,99,79,51,29.92,29.81,8,2,0,0.00
2013-2-16,39,34,28,33,28,19,99,82,61,29.87,29.61,5,2,0,0.02
2013-2-17,28,20,14,22,10,1,96,66,41,29.61,29.30,17,7,0,0.00
2013-2-18,31,20,12,4,1,-2,59,45,24,30.09,29.61,12,5,0,0.00
2013-2-19,48,34,19,41,24,1,99,69,43,30.10,29.50,4,1,0,0.31
2013-2-20,38,30,24,38,19,10,99,65,41,29.71,29.45,12,5,0,0.01
2013-2-21,34,26,22,16,14,11,73,60,43,30.12,29.68,11,5,0,0.00
2013-2-22,44,30,19,24,20,16,90,68,39,30.30,30.13,7,2,0,0.00
2013-2-23,39,33,28,32,29,23,99,85,70,30.24,29.81,4,0,0,0.00
2013-2-24,37,33,31,35,32,30,99,99,92,29.80,29.58,5,2,0,1.17
2013-2-25,41,34,26,34,31,26,99,91,71,30.15,29.80,3,0,0,0.52
2013-2-26,45,37,32,33,30,26,99,76,52,30.25,30.05,4,1,0,0.31
2013-2-27,41,37,34,41,37,31,99,98,86,30.05,29.48,8,3,0,1.62
2013-2-28,46,37,32,40,35,32,99,93,75,29.55,29.43,4,1,0,0.00